sensor_id;sensor_type;location;lat;lon;timestamp;temperature;humidity
43810;DHT22;29440;48.208;11.162;2023-05-10T00:02:02;14.00;99.90
43810;DHT22;29440;48.208;11.162;2023-05-10T00:04:27;14.00;99.90
43810;DHT22;29440;48.208;11.162;2023-05-10T00:06:54;14.00;99.90
43810;DHT22;29440;48.208;11.162;2023-05-10T00:09:20;14.00;99.90
43810;DHT22;29440;48.208;11.162;2023-05-10T00:11:45;14.00;99.90
43810;DHT22;29440;48.208;11.162;2023-05-10T00:14:11;14.00;99.90
43810;DHT22;29440;48.208;11.162;2023-05-10T00:16:37;14.00;99.90
43810;DHT22;29440;48.208;11.162;2023-05-10T00:19:02;14.00;99.90
43810;DHT22;29440;48.208;11.162;2023-05-10T00:21:28;14.10;99.90
43810;DHT22;29440;48.208;11.162;2023-05-10T00:23:54;14.00;99.90
43810;DHT22;29440;48.208;11.162;2023-05-10T00:26:20;13.90;99.90
43810;DHT22;29440;48.208;11.162;2023-05-10T00:28:45;13.90;99.90
43810;DHT22;29440;48.208;11.162;2023-05-10T00:31:11;13.90;99.90
43810;DHT22;29440;48.208;11.162;2023-05-10T00:33:36;13.90;99.90
43810;DHT22;29440;48.208;11.162;2023-05-10T00:36:02;13.90;99.90
43810;DHT22;29440;48.208;11.162;2023-05-10T00:38:28;13.90;99.90
43810;DHT22;29440;48.208;11.162;2023-05-10T00:40:53;13.80;99.90
43810;DHT22;29440;48.208;11.162;2023-05-10T00:43:19;13.80;99.90
43810;DHT22;29440;48.208;11.162;2023-05-10T00:45:44;13.80;99.90
43810;DHT22;29440;48.208;11.162;2023-05-10T00:48:10;13.80;99.90
43810;DHT22;29440;48.208;11.162;2023-05-10T00:50:36;13.80;99.90
43810;DHT22;29440;48.208;11.162;2023-05-10T00:53:02;13.80;99.90
43810;DHT22;29440;48.208;11.162;2023-05-10T00:55:28;13.80;99.90
43810;DHT22;29440;48.208;11.162;2023-05-10T00:57:54;13.80;99.90
43810;DHT22;29440;48.208;11.162;2023-05-10T01:00:19;13.80;99.90
43810;DHT22;29440;48.208;11.162;2023-05-10T01:02:46;13.80;99.90
43810;DHT22;29440;48.208;11.162;2023-05-10T01:05:12;13.80;99.90
43810;DHT22;29440;48.208;11.162;2023-05-10T01:07:38;13.70;99.90
43810;DHT22;29440;48.208;11.162;2023-05-10T01:10:06;13.70;99.90
43810;DHT22;29440;48.208;11.162;2023-05-10T01:12:35;13.70;99.90
43810;DHT22;29440;48.208;11.162;2023-05-10T01:15:02;13.80;99.90
43810;DHT22;29440;48.208;11.162;2023-05-10T01:17:28;13.70;99.90
43810;DHT22;29440;48.208;11.162;2023-05-10T01:19:54;13.70;99.90
43810;DHT22;29440;48.208;11.162;2023-05-10T01:25:31;13.70;99.90
43810;DHT22;29440;48.208;11.162;2023-05-10T01:28:13;13.70;99.90
43810;DHT22;29440;48.208;11.162;2023-05-10T01:31:03;13.70;99.90
43810;DHT22;29440;48.208;11.162;2023-05-10T01:39:14;13.60;99.90
43810;DHT22;29440;48.208;11.162;2023-05-10T01:42:16;13.60;99.90
43810;DHT22;29440;48.208;11.162;2023-05-10T01:44:49;13.60;99.90
43810;DHT22;29440;48.208;11.162;2023-05-10T01:47:34;13.60;99.90
43810;DHT22;29440;48.208;11.162;2023-05-10T01:50:03;13.60;99.90
43810;DHT22;29440;48.208;11.162;2023-05-10T01:52:37;13.60;99.90
43810;DHT22;29440;48.208;11.162;2023-05-10T01:55:09;13.50;99.90
43810;DHT22;29440;48.208;11.162;2023-05-10T01:57:37;13.50;99.90
43810;DHT22;29440;48.208;11.162;2023-05-10T02:00:08;13.50;99.90
43810;DHT22;29440;48.208;11.162;2023-05-10T02:02:37;13.50;99.90
43810;DHT22;29440;48.208;11.162;2023-05-10T02:05:06;13.60;99.90
43810;DHT22;29440;48.208;11.162;2023-05-10T02:07:34;13.50;99.90
43810;DHT22;29440;48.208;11.162;2023-05-10T02:10:05;13.50;99.90
43810;DHT22;29440;48.208;11.162;2023-05-10T02:12:33;13.50;99.90
43810;DHT22;29440;48.208;11.162;2023-05-10T02:15:02;13.50;99.90
43810;DHT22;29440;48.208;11.162;2023-05-10T02:17:29;13.50;99.90
43810;DHT22;29440;48.208;11.162;2023-05-10T02:19:56;13.50;99.90
43810;DHT22;29440;48.208;11.162;2023-05-10T02:22:23;13.50;99.90
43810;DHT22;29440;48.208;11.162;2023-05-10T02:24:50;13.50;99.90
43810;DHT22;29440;48.208;11.162;2023-05-10T02:27:17;13.50;99.90
43810;DHT22;29440;48.208;11.162;2023-05-10T02:29:43;13.50;99.90
43810;DHT22;29440;48.208;11.162;2023-05-10T02:32:10;13.50;99.90
43810;DHT22;29440;48.208;11.162;2023-05-10T02:34:36;13.40;99.90
43810;DHT22;29440;48.208;11.162;2023-05-10T02:37:02;13.40;99.90
43810;DHT22;29440;48.208;11.162;2023-05-10T02:39:29;13.50;99.90
43810;DHT22;29440;48.208;11.162;2023-05-10T02:41:57;13.40;99.90
43810;DHT22;29440;48.208;11.162;2023-05-10T02:44:23;13.40;99.90
43810;DHT22;29440;48.208;11.162;2023-05-10T02:46:51;13.40;99.90
43810;DHT22;29440;48.208;11.162;2023-05-10T02:49:17;13.40;99.90
43810;DHT22;29440;48.208;11.162;2023-05-10T02:51:50;13.40;99.90
43810;DHT22;29440;48.208;11.162;2023-05-10T02:54:20;13.40;99.90
43810;DHT22;29440;48.208;11.162;2023-05-10T02:56:50;13.40;99.90
43810;DHT22;29440;48.208;11.162;2023-05-10T02:59:17;13.40;99.90
43810;DHT22;29440;48.208;11.162;2023-05-10T03:01:43;13.30;99.90
43810;DHT22;29440;48.208;11.162;2023-05-10T03:04:09;13.30;99.90
43810;DHT22;29440;48.208;11.162;2023-05-10T03:06:35;13.40;99.90
43810;DHT22;29440;48.208;11.162;2023-05-10T03:09:01;13.40;99.90
43810;DHT22;29440;48.208;11.162;2023-05-10T03:11:50;13.30;99.90
43810;DHT22;29440;48.208;11.162;2023-05-10T03:14:21;13.30;99.90
43810;DHT22;29440;48.208;11.162;2023-05-10T03:16:58;13.40;99.90
43810;DHT22;29440;48.208;11.162;2023-05-10T03:19:43;13.30;99.90
43810;DHT22;29440;48.208;11.162;2023-05-10T03:22:13;13.30;99.90
43810;DHT22;29440;48.208;11.162;2023-05-10T03:24:43;13.30;99.90
43810;DHT22;29440;48.208;11.162;2023-05-10T03:27:10;13.30;99.90
43810;DHT22;29440;48.208;11.162;2023-05-10T03:29:38;13.30;99.90
43810;DHT22;29440;48.208;11.162;2023-05-10T03:32:04;13.30;99.90
43810;DHT22;29440;48.208;11.162;2023-05-10T03:34:30;13.40;99.90
43810;DHT22;29440;48.208;11.162;2023-05-10T03:36:57;13.30;99.90
43810;DHT22;29440;48.208;11.162;2023-05-10T03:39:22;13.30;99.90
43810;DHT22;29440;48.208;11.162;2023-05-10T03:41:48;13.30;99.90
43810;DHT22;29440;48.208;11.162;2023-05-10T03:44:13;13.30;99.90
43810;DHT22;29440;48.208;11.162;2023-05-10T03:46:39;13.20;99.90
43810;DHT22;29440;48.208;11.162;2023-05-10T03:49:04;13.20;99.90
43810;DHT22;29440;48.208;11.162;2023-05-10T03:51:30;13.20;99.90
43810;DHT22;29440;48.208;11.162;2023-05-10T03:53:56;13.20;99.90
43810;DHT22;29440;48.208;11.162;2023-05-10T03:56:22;13.20;99.90
43810;DHT22;29440;48.208;11.162;2023-05-10T03:58:47;13.20;99.90
43810;DHT22;29440;48.208;11.162;2023-05-10T04:01:13;13.20;99.90
43810;DHT22;29440;48.208;11.162;2023-05-10T04:03:38;13.30;99.90
43810;DHT22;29440;48.208;11.162;2023-05-10T04:06:04;13.30;99.90
43810;DHT22;29440;48.208;11.162;2023-05-10T04:08:31;13.20;99.90
43810;DHT22;29440;48.208;11.162;2023-05-10T04:11:10;13.20;99.90
43810;DHT22;29440;48.208;11.162;2023-05-10T04:13:36;13.20;99.90
43810;DHT22;29440;48.208;11.162;2023-05-10T04:16:01;13.10;99.90
43810;DHT22;29440;48.208;11.162;2023-05-10T04:18:27;13.10;99.90
43810;DHT22;29440;48.208;11.162;2023-05-10T04:20:53;13.10;99.90
43810;DHT22;29440;48.208;11.162;2023-05-10T04:23:18;13.10;99.90
43810;DHT22;29440;48.208;11.162;2023-05-10T04:25:44;13.10;99.90
43810;DHT22;29440;48.208;11.162;2023-05-10T04:28:10;13.00;99.90
43810;DHT22;29440;48.208;11.162;2023-05-10T04:30:35;13.00;99.90
43810;DHT22;29440;48.208;11.162;2023-05-10T04:33:01;13.00;99.90
43810;DHT22;29440;48.208;11.162;2023-05-10T04:35:27;13.00;99.90
43810;DHT22;29440;48.208;11.162;2023-05-10T04:37:53;12.90;99.90
43810;DHT22;29440;48.208;11.162;2023-05-10T04:40:19;12.90;99.90
43810;DHT22;29440;48.208;11.162;2023-05-10T04:42:45;12.90;99.90
43810;DHT22;29440;48.208;11.162;2023-05-10T04:45:10;12.90;99.90
43810;DHT22;29440;48.208;11.162;2023-05-10T04:47:36;12.90;99.90
43810;DHT22;29440;48.208;11.162;2023-05-10T04:50:05;12.80;99.90
43810;DHT22;29440;48.208;11.162;2023-05-10T04:52:31;12.80;99.90
43810;DHT22;29440;48.208;11.162;2023-05-10T04:54:57;12.80;99.90
43810;DHT22;29440;48.208;11.162;2023-05-10T04:57:23;12.80;99.90
43810;DHT22;29440;48.208;11.162;2023-05-10T04:59:48;12.80;99.90
43810;DHT22;29440;48.208;11.162;2023-05-10T05:02:14;12.70;99.90
43810;DHT22;29440;48.208;11.162;2023-05-10T05:04:39;12.70;99.90
43810;DHT22;29440;48.208;11.162;2023-05-10T05:07:05;12.70;99.90
43810;DHT22;29440;48.208;11.162;2023-05-10T05:09:30;12.70;99.90
43810;DHT22;29440;48.208;11.162;2023-05-10T05:11:57;12.60;99.90
43810;DHT22;29440;48.208;11.162;2023-05-10T05:14:23;12.60;99.90
43810;DHT22;29440;48.208;11.162;2023-05-10T05:16:53;12.60;99.90
43810;DHT22;29440;48.208;11.162;2023-05-10T05:19:19;12.60;99.90
43810;DHT22;29440;48.208;11.162;2023-05-10T05:21:44;12.60;99.90
43810;DHT22;29440;48.208;11.162;2023-05-10T05:24:10;12.60;99.90
43810;DHT22;29440;48.208;11.162;2023-05-10T05:26:38;12.60;99.90
43810;DHT22;29440;48.208;11.162;2023-05-10T05:29:03;12.60;99.90
43810;DHT22;29440;48.208;11.162;2023-05-10T05:31:29;12.60;99.90
43810;DHT22;29440;48.208;11.162;2023-05-10T05:33:55;12.60;99.90
43810;DHT22;29440;48.208;11.162;2023-05-10T05:36:21;12.70;99.90
43810;DHT22;29440;48.208;11.162;2023-05-10T05:38:46;12.70;99.90
43810;DHT22;29440;48.208;11.162;2023-05-10T05:41:12;12.70;99.90
43810;DHT22;29440;48.208;11.162;2023-05-10T05:43:37;12.70;99.90
43810;DHT22;29440;48.208;11.162;2023-05-10T05:46:03;12.80;99.90
43810;DHT22;29440;48.208;11.162;2023-05-10T05:48:30;12.80;99.90
43810;DHT22;29440;48.208;11.162;2023-05-10T05:50:56;12.90;99.90
43810;DHT22;29440;48.208;11.162;2023-05-10T05:53:22;12.90;99.90
43810;DHT22;29440;48.208;11.162;2023-05-10T05:55:58;13.00;99.90
43810;DHT22;29440;48.208;11.162;2023-05-10T05:58:24;13.00;99.90
43810;DHT22;29440;48.208;11.162;2023-05-10T06:00:51;13.10;99.90
43810;DHT22;29440;48.208;11.162;2023-05-10T06:03:17;13.10;99.90
43810;DHT22;29440;48.208;11.162;2023-05-10T06:05:43;13.20;99.90
43810;DHT22;29440;48.208;11.162;2023-05-10T06:08:09;13.20;99.90
43810;DHT22;29440;48.208;11.162;2023-05-10T06:10:35;13.30;99.90
43810;DHT22;29440;48.208;11.162;2023-05-10T06:13:00;13.40;99.90
43810;DHT22;29440;48.208;11.162;2023-05-10T06:15:26;13.40;99.90
43810;DHT22;29440;48.208;11.162;2023-05-10T06:17:52;13.50;99.90
43810;DHT22;29440;48.208;11.162;2023-05-10T06:20:18;13.60;99.90
43810;DHT22;29440;48.208;11.162;2023-05-10T06:22:51;13.60;99.90
43810;DHT22;29440;48.208;11.162;2023-05-10T06:25:17;13.70;99.90
43810;DHT22;29440;48.208;11.162;2023-05-10T06:27:46;13.70;99.90
43810;DHT22;29440;48.208;11.162;2023-05-10T06:30:12;13.70;99.90
43810;DHT22;29440;48.208;11.162;2023-05-10T06:32:39;13.70;99.90
43810;DHT22;29440;48.208;11.162;2023-05-10T06:35:05;13.80;99.90
43810;DHT22;29440;48.208;11.162;2023-05-10T06:37:43;13.90;99.90
43810;DHT22;29440;48.208;11.162;2023-05-10T06:40:09;13.90;99.90
43810;DHT22;29440;48.208;11.162;2023-05-10T06:42:34;13.90;99.90
43810;DHT22;29440;48.208;11.162;2023-05-10T06:45:00;13.90;99.90
43810;DHT22;29440;48.208;11.162;2023-05-10T06:47:25;14.00;99.90
43810;DHT22;29440;48.208;11.162;2023-05-10T06:49:51;14.00;99.90
43810;DHT22;29440;48.208;11.162;2023-05-10T06:52:16;14.10;99.90
43810;DHT22;29440;48.208;11.162;2023-05-10T06:54:42;14.20;99.90
43810;DHT22;29440;48.208;11.162;2023-05-10T06:57:07;14.20;99.90
43810;DHT22;29440;48.208;11.162;2023-05-10T06:59:33;14.30;99.90
43810;DHT22;29440;48.208;11.162;2023-05-10T07:01:58;14.20;99.90
43810;DHT22;29440;48.208;11.162;2023-05-10T07:04:24;14.20;99.90
43810;DHT22;29440;48.208;11.162;2023-05-10T07:06:49;14.30;99.90
43810;DHT22;29440;48.208;11.162;2023-05-10T07:09:15;14.30;99.90
43810;DHT22;29440;48.208;11.162;2023-05-10T07:11:41;14.40;99.90
43810;DHT22;29440;48.208;11.162;2023-05-10T07:14:06;14.50;99.90
43810;DHT22;29440;48.208;11.162;2023-05-10T07:16:32;14.50;99.90
43810;DHT22;29440;48.208;11.162;2023-05-10T07:18:58;14.60;99.90
43810;DHT22;29440;48.208;11.162;2023-05-10T07:21:23;14.70;99.90
43810;DHT22;29440;48.208;11.162;2023-05-10T07:23:49;14.80;99.90
43810;DHT22;29440;48.208;11.162;2023-05-10T07:26:15;14.80;99.90
43810;DHT22;29440;48.208;11.162;2023-05-10T07:28:41;14.80;99.90
43810;DHT22;29440;48.208;11.162;2023-05-10T07:31:06;14.90;99.90
43810;DHT22;29440;48.208;11.162;2023-05-10T07:33:32;14.90;99.90
43810;DHT22;29440;48.208;11.162;2023-05-10T07:35:58;15.10;99.90
43810;DHT22;29440;48.208;11.162;2023-05-10T07:38:23;15.50;99.90
43810;DHT22;29440;48.208;11.162;2023-05-10T07:40:49;15.70;99.90
43810;DHT22;29440;48.208;11.162;2023-05-10T07:43:14;15.80;99.90
43810;DHT22;29440;48.208;11.162;2023-05-10T07:45:40;15.80;99.90
43810;DHT22;29440;48.208;11.162;2023-05-10T07:48:05;15.90;99.90
43810;DHT22;29440;48.208;11.162;2023-05-10T07:50:31;16.00;99.90
43810;DHT22;29440;48.208;11.162;2023-05-10T07:52:56;16.30;99.90
43810;DHT22;29440;48.208;11.162;2023-05-10T07:55:22;16.40;99.90
43810;DHT22;29440;48.208;11.162;2023-05-10T07:57:47;16.60;99.90
43810;DHT22;29440;48.208;11.162;2023-05-10T08:00:17;16.70;99.90
43810;DHT22;29440;48.208;11.162;2023-05-10T08:02:43;16.80;99.90
43810;DHT22;29440;48.208;11.162;2023-05-10T08:05:08;16.70;99.90
43810;DHT22;29440;48.208;11.162;2023-05-10T08:07:34;16.70;99.90
43810;DHT22;29440;48.208;11.162;2023-05-10T08:10:18;16.90;99.90
43810;DHT22;29440;48.208;11.162;2023-05-10T08:12:44;16.60;99.90
43810;DHT22;29440;48.208;11.162;2023-05-10T08:15:10;16.60;99.90
43810;DHT22;29440;48.208;11.162;2023-05-10T08:17:36;16.60;99.90
43810;DHT22;29440;48.208;11.162;2023-05-10T08:20:11;16.70;99.90
43810;DHT22;29440;48.208;11.162;2023-05-10T08:22:38;16.90;99.90
43810;DHT22;29440;48.208;11.162;2023-05-10T08:25:04;17.00;99.90
43810;DHT22;29440;48.208;11.162;2023-05-10T08:27:29;17.20;99.90
43810;DHT22;29440;48.208;11.162;2023-05-10T08:29:55;17.50;99.90
43810;DHT22;29440;48.208;11.162;2023-05-10T08:32:20;17.40;99.90
43810;DHT22;29440;48.208;11.162;2023-05-10T08:34:46;17.30;99.90
43810;DHT22;29440;48.208;11.162;2023-05-10T08:37:11;17.30;99.90
43810;DHT22;29440;48.208;11.162;2023-05-10T08:39:38;17.20;99.90
43810;DHT22;29440;48.208;11.162;2023-05-10T08:42:04;17.10;99.90
43810;DHT22;29440;48.208;11.162;2023-05-10T08:44:34;17.10;99.90
43810;DHT22;29440;48.208;11.162;2023-05-10T08:47:04;16.90;99.90
43810;DHT22;29440;48.208;11.162;2023-05-10T08:49:31;16.80;99.90
43810;DHT22;29440;48.208;11.162;2023-05-10T08:52:01;16.80;99.90
43810;DHT22;29440;48.208;11.162;2023-05-10T08:54:28;16.90;99.90
43810;DHT22;29440;48.208;11.162;2023-05-10T08:56:54;16.90;99.90
43810;DHT22;29440;48.208;11.162;2023-05-10T08:59:19;16.90;99.90
43810;DHT22;29440;48.208;11.162;2023-05-10T09:01:45;17.00;99.90
43810;DHT22;29440;48.208;11.162;2023-05-10T09:04:13;17.10;99.90
43810;DHT22;29440;48.208;11.162;2023-05-10T09:06:39;16.90;99.90
43810;DHT22;29440;48.208;11.162;2023-05-10T09:09:05;16.90;99.90
43810;DHT22;29440;48.208;11.162;2023-05-10T09:11:30;16.90;99.90
43810;DHT22;29440;48.208;11.162;2023-05-10T09:13:56;16.90;99.90
43810;DHT22;29440;48.208;11.162;2023-05-10T09:16:44;16.90;99.90
43810;DHT22;29440;48.208;11.162;2023-05-10T09:19:10;16.80;99.90
43810;DHT22;29440;48.208;11.162;2023-05-10T09:21:36;16.70;99.90
43810;DHT22;29440;48.208;11.162;2023-05-10T09:24:04;16.50;99.90
43810;DHT22;29440;48.208;11.162;2023-05-10T09:26:30;16.60;99.90
43810;DHT22;29440;48.208;11.162;2023-05-10T09:28:58;16.60;99.90
43810;DHT22;29440;48.208;11.162;2023-05-10T09:31:24;16.80;99.90
43810;DHT22;29440;48.208;11.162;2023-05-10T09:34:08;17.00;99.90
43810;DHT22;29440;48.208;11.162;2023-05-10T09:36:33;17.30;99.90
43810;DHT22;29440;48.208;11.162;2023-05-10T09:38:59;17.60;99.90
43810;DHT22;29440;48.208;11.162;2023-05-10T09:41:25;18.00;99.90
43810;DHT22;29440;48.208;11.162;2023-05-10T09:43:55;18.40;99.90
43810;DHT22;29440;48.208;11.162;2023-05-10T09:46:21;18.70;99.90
43810;DHT22;29440;48.208;11.162;2023-05-10T09:48:47;18.90;99.90
43810;DHT22;29440;48.208;11.162;2023-05-10T09:51:20;18.90;99.90
43810;DHT22;29440;48.208;11.162;2023-05-10T09:53:47;18.80;99.90
43810;DHT22;29440;48.208;11.162;2023-05-10T09:56:12;18.80;99.90
43810;DHT22;29440;48.208;11.162;2023-05-10T09:58:49;18.60;99.90
43810;DHT22;29440;48.208;11.162;2023-05-10T10:01:26;18.50;99.90
43810;DHT22;29440;48.208;11.162;2023-05-10T10:03:53;18.50;99.90
43810;DHT22;29440;48.208;11.162;2023-05-10T10:06:19;18.40;99.90
43810;DHT22;29440;48.208;11.162;2023-05-10T10:08:45;18.40;99.90
43810;DHT22;29440;48.208;11.162;2023-05-10T10:11:11;18.30;99.90
43810;DHT22;29440;48.208;11.162;2023-05-10T10:13:37;18.30;99.90
43810;DHT22;29440;48.208;11.162;2023-05-10T10:16:02;18.10;99.90
43810;DHT22;29440;48.208;11.162;2023-05-10T10:18:30;18.10;99.90
43810;DHT22;29440;48.208;11.162;2023-05-10T10:20:56;18.00;99.90
43810;DHT22;29440;48.208;11.162;2023-05-10T10:23:21;18.00;99.90
43810;DHT22;29440;48.208;11.162;2023-05-10T10:25:48;17.80;99.90
43810;DHT22;29440;48.208;11.162;2023-05-10T10:28:32;17.80;99.90
43810;DHT22;29440;48.208;11.162;2023-05-10T10:31:12;17.70;99.90
43810;DHT22;29440;48.208;11.162;2023-05-10T10:36:46;17.70;99.90
43810;DHT22;29440;48.208;11.162;2023-05-10T10:39:13;17.60;99.90
43810;DHT22;29440;48.208;11.162;2023-05-10T10:41:48;17.60;99.90
43810;DHT22;29440;48.208;11.162;2023-05-10T10:44:25;17.50;99.90
43810;DHT22;29440;48.208;11.162;2023-05-10T10:52:27;17.00;99.90
43810;DHT22;29440;48.208;11.162;2023-05-10T10:55:08;16.60;99.90
43810;DHT22;29440;48.208;11.162;2023-05-10T10:57:55;16.30;99.90
43810;DHT22;29440;48.208;11.162;2023-05-10T11:00:35;15.90;99.90
43810;DHT22;29440;48.208;11.162;2023-05-10T11:03:05;15.50;99.90
43810;DHT22;29440;48.208;11.162;2023-05-10T11:05:41;15.30;99.90
43810;DHT22;29440;48.208;11.162;2023-05-10T11:08:44;15.10;99.90
43810;DHT22;29440;48.208;11.162;2023-05-10T11:11:14;14.90;99.90
43810;DHT22;29440;48.208;11.162;2023-05-10T11:13:45;14.70;99.90
43810;DHT22;29440;48.208;11.162;2023-05-10T11:18:58;14.40;99.90
43810;DHT22;29440;48.208;11.162;2023-05-10T11:21:24;14.30;99.90
43810;DHT22;29440;48.208;11.162;2023-05-10T11:23:56;14.20;99.90
43810;DHT22;29440;48.208;11.162;2023-05-10T11:26:30;14.10;99.90
43810;DHT22;29440;48.208;11.162;2023-05-10T11:28:56;14.10;99.90
43810;DHT22;29440;48.208;11.162;2023-05-10T11:31:23;14.10;99.90
43810;DHT22;29440;48.208;11.162;2023-05-10T11:33:53;14.10;99.90
43810;DHT22;29440;48.208;11.162;2023-05-10T11:36:32;14.20;99.90
43810;DHT22;29440;48.208;11.162;2023-05-10T11:38:58;14.20;99.90
43810;DHT22;29440;48.208;11.162;2023-05-10T11:41:24;14.20;99.90
43810;DHT22;29440;48.208;11.162;2023-05-10T11:43:57;14.20;99.90
43810;DHT22;29440;48.208;11.162;2023-05-10T11:46:25;14.20;99.90
43810;DHT22;29440;48.208;11.162;2023-05-10T11:48:54;14.20;99.90
43810;DHT22;29440;48.208;11.162;2023-05-10T11:51:21;14.10;99.90
43810;DHT22;29440;48.208;11.162;2023-05-10T11:53:47;14.10;99.90
43810;DHT22;29440;48.208;11.162;2023-05-10T11:56:14;14.20;99.90
43810;DHT22;29440;48.208;11.162;2023-05-10T11:58:54;14.20;99.90
43810;DHT22;29440;48.208;11.162;2023-05-10T12:01:21;14.20;99.90
43810;DHT22;29440;48.208;11.162;2023-05-10T12:03:47;14.20;99.90
43810;DHT22;29440;48.208;11.162;2023-05-10T12:06:13;14.20;99.90
43810;DHT22;29440;48.208;11.162;2023-05-10T12:08:44;14.20;99.90
43810;DHT22;29440;48.208;11.162;2023-05-10T12:11:12;14.20;99.90
43810;DHT22;29440;48.208;11.162;2023-05-10T12:13:40;14.20;99.90
43810;DHT22;29440;48.208;11.162;2023-05-10T12:16:17;14.20;99.90
43810;DHT22;29440;48.208;11.162;2023-05-10T12:18:43;14.20;99.90
43810;DHT22;29440;48.208;11.162;2023-05-10T12:21:12;14.20;99.90
43810;DHT22;29440;48.208;11.162;2023-05-10T12:23:39;14.20;99.90
43810;DHT22;29440;48.208;11.162;2023-05-10T12:26:05;14.30;99.90
43810;DHT22;29440;48.208;11.162;2023-05-10T12:28:32;14.20;99.90
43810;DHT22;29440;48.208;11.162;2023-05-10T12:30:58;14.20;99.90
43810;DHT22;29440;48.208;11.162;2023-05-10T12:33:24;14.30;99.90
43810;DHT22;29440;48.208;11.162;2023-05-10T12:35:51;14.30;99.90
43810;DHT22;29440;48.208;11.162;2023-05-10T12:41:01;14.20;99.90
43810;DHT22;29440;48.208;11.162;2023-05-10T12:43:27;14.10;99.90
43810;DHT22;29440;48.208;11.162;2023-05-10T12:45:52;14.00;99.90
43810;DHT22;29440;48.208;11.162;2023-05-10T12:48:18;13.80;99.90
43810;DHT22;29440;48.208;11.162;2023-05-10T12:50:46;13.70;99.90
43810;DHT22;29440;48.208;11.162;2023-05-10T12:53:13;13.60;99.90
43810;DHT22;29440;48.208;11.162;2023-05-10T12:55:41;13.40;99.90
43810;DHT22;29440;48.208;11.162;2023-05-10T12:58:06;13.20;99.90
43810;DHT22;29440;48.208;11.162;2023-05-10T13:00:32;13.10;99.90
43810;DHT22;29440;48.208;11.162;2023-05-10T13:02:57;13.00;99.90
43810;DHT22;29440;48.208;11.162;2023-05-10T13:05:23;12.90;99.90
43810;DHT22;29440;48.208;11.162;2023-05-10T13:07:48;12.90;99.90
43810;DHT22;29440;48.208;11.162;2023-05-10T13:10:14;12.80;99.90
43810;DHT22;29440;48.208;11.162;2023-05-10T13:12:40;12.80;99.90
43810;DHT22;29440;48.208;11.162;2023-05-10T13:15:06;12.70;99.90
43810;DHT22;29440;48.208;11.162;2023-05-10T13:17:32;12.70;99.90
43810;DHT22;29440;48.208;11.162;2023-05-10T13:19:57;12.80;99.90
43810;DHT22;29440;48.208;11.162;2023-05-10T13:22:23;12.80;99.90
43810;DHT22;29440;48.208;11.162;2023-05-10T13:24:48;12.80;99.90
43810;DHT22;29440;48.208;11.162;2023-05-10T13:27:14;13.00;99.90
43810;DHT22;29440;48.208;11.162;2023-05-10T13:29:39;12.90;99.90
43810;DHT22;29440;48.208;11.162;2023-05-10T13:32:05;13.00;99.90
43810;DHT22;29440;48.208;11.162;2023-05-10T13:34:31;13.00;99.90
43810;DHT22;29440;48.208;11.162;2023-05-10T13:36:57;13.00;99.90
43810;DHT22;29440;48.208;11.162;2023-05-10T13:39:23;13.00;99.90
43810;DHT22;29440;48.208;11.162;2023-05-10T13:41:48;13.00;99.90
43810;DHT22;29440;48.208;11.162;2023-05-10T13:44:14;12.90;99.90
43810;DHT22;29440;48.208;11.162;2023-05-10T13:46:41;12.90;99.90
43810;DHT22;29440;48.208;11.162;2023-05-10T13:49:09;12.90;99.90
43810;DHT22;29440;48.208;11.162;2023-05-10T13:51:35;12.90;99.90
43810;DHT22;29440;48.208;11.162;2023-05-10T13:54:01;12.90;99.90
43810;DHT22;29440;48.208;11.162;2023-05-10T13:56:27;12.90;99.90
43810;DHT22;29440;48.208;11.162;2023-05-10T13:58:53;12.80;99.90
43810;DHT22;29440;48.208;11.162;2023-05-10T14:01:18;12.80;99.90
43810;DHT22;29440;48.208;11.162;2023-05-10T14:03:44;12.80;99.90
43810;DHT22;29440;48.208;11.162;2023-05-10T14:06:10;12.80;99.90
43810;DHT22;29440;48.208;11.162;2023-05-10T14:08:36;12.80;99.90
43810;DHT22;29440;48.208;11.162;2023-05-10T14:11:02;12.80;99.90
43810;DHT22;29440;48.208;11.162;2023-05-10T14:13:27;12.70;99.90
43810;DHT22;29440;48.208;11.162;2023-05-10T14:15:53;12.70;99.90
43810;DHT22;29440;48.208;11.162;2023-05-10T14:18:19;12.60;99.90
43810;DHT22;29440;48.208;11.162;2023-05-10T14:20:45;12.50;99.90
43810;DHT22;29440;48.208;11.162;2023-05-10T14:23:11;12.50;99.90
43810;DHT22;29440;48.208;11.162;2023-05-10T14:25:37;12.50;99.90
43810;DHT22;29440;48.208;11.162;2023-05-10T14:28:03;12.50;99.90
43810;DHT22;29440;48.208;11.162;2023-05-10T14:30:29;12.40;99.90
43810;DHT22;29440;48.208;11.162;2023-05-10T14:32:54;12.40;99.90
43810;DHT22;29440;48.208;11.162;2023-05-10T14:35:20;12.50;99.90
43810;DHT22;29440;48.208;11.162;2023-05-10T14:37:46;12.50;99.90
43810;DHT22;29440;48.208;11.162;2023-05-10T14:40:12;12.60;99.90
43810;DHT22;29440;48.208;11.162;2023-05-10T14:42:38;12.50;99.90
43810;DHT22;29440;48.208;11.162;2023-05-10T14:45:04;12.50;99.90
43810;DHT22;29440;48.208;11.162;2023-05-10T14:47:30;12.50;99.90
43810;DHT22;29440;48.208;11.162;2023-05-10T14:49:55;12.50;99.90
43810;DHT22;29440;48.208;11.162;2023-05-10T14:52:21;12.50;99.90
43810;DHT22;29440;48.208;11.162;2023-05-10T14:54:46;12.60;99.90
43810;DHT22;29440;48.208;11.162;2023-05-10T14:57:14;12.50;99.90
43810;DHT22;29440;48.208;11.162;2023-05-10T14:59:39;12.60;99.90
43810;DHT22;29440;48.208;11.162;2023-05-10T15:02:05;12.60;99.90
43810;DHT22;29440;48.208;11.162;2023-05-10T15:04:31;12.50;99.90
43810;DHT22;29440;48.208;11.162;2023-05-10T15:06:56;12.50;99.90
43810;DHT22;29440;48.208;11.162;2023-05-10T15:09:29;12.50;99.90
43810;DHT22;29440;48.208;11.162;2023-05-10T15:11:55;12.50;99.90
43810;DHT22;29440;48.208;11.162;2023-05-10T15:14:21;12.50;99.90
43810;DHT22;29440;48.208;11.162;2023-05-10T15:16:47;12.50;99.90
43810;DHT22;29440;48.208;11.162;2023-05-10T15:19:12;12.40;99.90
43810;DHT22;29440;48.208;11.162;2023-05-10T15:21:38;12.40;99.90
43810;DHT22;29440;48.208;11.162;2023-05-10T15:24:07;12.40;99.90
43810;DHT22;29440;48.208;11.162;2023-05-10T15:26:33;12.40;99.90
43810;DHT22;29440;48.208;11.162;2023-05-10T15:28:58;12.40;99.90
43810;DHT22;29440;48.208;11.162;2023-05-10T15:31:24;12.40;99.90
43810;DHT22;29440;48.208;11.162;2023-05-10T15:33:50;12.40;99.90
43810;DHT22;29440;48.208;11.162;2023-05-10T15:36:15;12.40;99.90
43810;DHT22;29440;48.208;11.162;2023-05-10T15:38:43;12.40;99.90
43810;DHT22;29440;48.208;11.162;2023-05-10T15:41:08;12.40;99.90